Observations for VENEZIA TESSERA, Italy (LIPZ)

LIPZ 100220Z 31003KT 0700 R04R/P1500N FG NSC 02/02 Q1010 NOSIG  
LIPZ 100150Z VRB02KT 0800 R04R/1100VP1500D FG NSC 03/03 Q1010 NOSIG 
LIPZ 100120Z VRB02KT 0800 R04R/P1500N FG NSC 03/03 Q1009 NOSIG  
LIPZ 100050Z VRB02KT 0900 R04R/P1500N FG NSC 03/03 Q1009 NOSIG  
LIPZ 100020Z 25004KT 230V290 2000 VCFG BR NSC 02/02 Q1009 BECMG 0800 BCFG   
LIPZ 092350Z 30003KT 280V340 2000 VCFG BR NSC 05/04 Q1008 BECMG 0800 BCFG   
LIPZ 092320Z 23003KT 2000 R04R/1400U BCFG BR NSC 04/04 Q1008 BECMG 0800 BCFG
LIPZ 092250Z VRB02KT 2000 R04R/1400D BCFG BR NSC 05/05 Q1008 BECMG 0800 BCFG
LIPZ 092220Z VRB01KT 3000 BCFG BR NSC 03/03 Q1008 BECMG 1500 BCFG   
LIPZ 092150Z 28003KT 250V360 4000 BR NSC 05/05 Q1008 BECMG 1500 BCFG
LIPZ 092120Z VRB02KT 4000 BR NSC 05/05 Q1008 BECMG 1500 BCFG
LIPZ 092050Z 04003KT 5000 BR NSC 04/04 Q1007 BECMG 1500 BCFG
LIPZ 092020Z 25006KT 7000 NSC 05/05 Q1007 NOSIG 
LIPZ 091950Z 24004KT 7000 NSC 06/05 Q1007 NOSIG 
LIPZ 091920Z 23006KT 210V270 7000 NSC 06/05 Q1007 NOSIG 
LIPZ 091850Z 22009KT 7000 FEW060 07/06 Q1006 NOSIG  
LIPZ 091820Z 24005KT 220V280 7000 NSC 08/06 Q1006 NOSIG 
LIPZ 091750Z 21006KT CAVOK 07/05 Q1006 NOSIG
LIPZ 091720Z 24007KT CAVOK 08/05 Q1006 NOSIG
LIPZ 091650Z 24007KT CAVOK 09/06 Q1006 NOSIG
LIPZ 091620Z 24008KT CAVOK 09/05 Q1006 NOSIG
LIPZ 091550Z 25006KT 220V290 CAVOK 09/05 Q1006 NOSIG
LIPZ 091520Z 25006KT CAVOK 10/05 Q1006 NOSIG
LIPZ 091450Z 27005KT 230V320 CAVOK 11/05 Q1006 NOSIG
LIPZ 091420Z 29005KT 250V330 CAVOK 11/05 Q1006 NOSIG
LIPZ 091350Z 31005KT 280V340 CAVOK 12/05 Q1006 NOSIG
LIPZ 091320Z 32003KT 250V020 CAVOK 12/05 Q1006 NOSIG
LIPZ 091250Z 04007KT CAVOK 12/06 Q1005 NOSIG
LIPZ 091220Z 35007KT CAVOK 12/07 Q1006 NOSIG
LIPZ 091150Z 36008KT CAVOK 11/07 Q1006 NOSIG
LIPZ 091120Z 01006KT 330V030 CAVOK 11/07 Q1006 NOSIG
LIPZ 091050Z 36007KT CAVOK 10/07 Q1006 NOSIG
LIPZ 091020Z 02006KT CAVOK 10/06 Q1006 NOSIG
LIPZ 090950Z 03008KT CAVOK 09/06 Q1007 NOSIG
LIPZ 090920Z 03009KT CAVOK 08/06 Q1007 NOSIG
LIPZ 090850Z 01010KT CAVOK 07/05 Q1007 NOSIG
LIPZ 090820Z 36009KT 8000 NSC 05/04 Q1007 NOSIG 
LIPZ 090750Z 36007KT 8000 NSC 04/04 Q1007 NOSIG 
LIPZ 090720Z 36007KT 7000 NSC 04/04 Q1008 NOSIG 
LIPZ 090650Z 35006KT 7000 NSC 04/03 Q1008 NOSIG 
LIPZ 090620Z 36006KT 7000 NSC 03/03 Q1008 NOSIG 
LIPZ 090550Z 01005KT 7000 NSC 03/03 Q1009 NOSIG 
LIPZ 090520Z 01007KT 7000 NSC 03/03 Q1009 NOSIG 
LIPZ 090450Z 01006KT 4000 BR NSC 03/03 Q1009 NOSIG  
LIPZ 090420Z 36006KT 3000 BR NSC 03/03 Q1010 NOSIG  
LIPZ 090350Z 36008KT 1200 R04R/P1500N BCFG NSC 03/03 Q1011 BECMG 0500 FG
LIPZ 090320Z 34005KT 0800 R04R/1300D FG NSC 03/03 Q1011 BECMG 0500 FG   
LIPZ 090250Z 30004KT 1000 R04R/0750N MIFG NSC 02/02 Q1011 BECMG 0600 FG 
LIPZ 090220Z 32005KT 1500 0500NW R04R/1400U BCFG SCT003 02/02 Q1012 NOSIG   
LIPZ 090150Z 33003KT 300V360 2000 R04R/1400U BCFG SCT003 03/03 Q1013 NOSIG